sensor_id;sensor_type;location;lat;lon;timestamp;pressure;altitude;pressure_sealevel;temperature;humidity
13434;BME280;6789;47.678;9.158;2023-04-20T00:02:17;96581.53;;;6.61;100.00
13434;BME280;6789;47.678;9.158;2023-04-20T00:07:10;96581.53;;;6.61;100.00
13434;BME280;6789;47.678;9.158;2023-04-20T00:12:01;96564.06;;;6.62;100.00
13434;BME280;6789;47.678;9.158;2023-04-20T00:16:53;96561.47;;;6.62;100.00
13434;BME280;6789;47.678;9.158;2023-04-20T00:21:46;96553.25;;;6.65;100.00
13434;BME280;6789;47.678;9.158;2023-04-20T00:26:38;96547.44;;;6.69;100.00
13434;BME280;6789;47.678;9.158;2023-04-20T00:31:30;96538.81;;;6.69;100.00
13434;BME280;6789;47.678;9.158;2023-04-20T00:36:22;96522.97;;;6.77;100.00
13434;BME280;6789;47.678;9.158;2023-04-20T00:41:14;96505.31;;;6.79;100.00
13434;BME280;6789;47.678;9.158;2023-04-20T00:46:06;96494.50;;;6.75;100.00
13434;BME280;6789;47.678;9.158;2023-04-20T00:50:58;96485.66;;;6.76;100.00
13434;BME280;6789;47.678;9.158;2023-04-20T00:55:50;96486.72;;;6.69;100.00
13434;BME280;6789;47.678;9.158;2023-04-20T01:00:41;96471.28;;;6.67;100.00
13434;BME280;6789;47.678;9.158;2023-04-20T01:05:34;96477.06;;;6.76;100.00
13434;BME280;6789;47.678;9.158;2023-04-20T01:10:26;96483.78;;;6.46;100.00
13434;BME280;6789;47.678;9.158;2023-04-20T01:15:18;96470.44;;;6.23;100.00
13434;BME280;6789;47.678;9.158;2023-04-20T01:20:10;96466.63;;;6.26;100.00
13434;BME280;6789;47.678;9.158;2023-04-20T01:25:06;96459.63;;;6.20;100.00
13434;BME280;6789;47.678;9.158;2023-04-20T01:29:58;96456.22;;;5.93;100.00
13434;BME280;6789;47.678;9.158;2023-04-20T01:34:50;96448.25;;;5.82;100.00
13434;BME280;6789;47.678;9.158;2023-04-20T01:39:41;96432.59;;;5.75;100.00
13434;BME280;6789;47.678;9.158;2023-04-20T01:44:34;96437.84;;;5.82;100.00
13434;BME280;6789;47.678;9.158;2023-04-20T01:49:26;96427.63;;;5.87;100.00
13434;BME280;6789;47.678;9.158;2023-04-20T01:54:17;96423.38;;;6.05;100.00
13434;BME280;6789;47.678;9.158;2023-04-20T01:59:09;96423.00;;;6.08;100.00
13434;BME280;6789;47.678;9.158;2023-04-20T02:04:01;96427.38;;;6.14;100.00
13434;BME280;6789;47.678;9.158;2023-04-20T02:08:53;96417.78;;;6.08;100.00
13434;BME280;6789;47.678;9.158;2023-04-20T02:13:45;96404.97;;;6.00;100.00
13434;BME280;6789;47.678;9.158;2023-04-20T02:18:36;96401.00;;;5.98;100.00
13434;BME280;6789;47.678;9.158;2023-04-20T02:23:28;96393.00;;;5.86;100.00
13434;BME280;6789;47.678;9.158;2023-04-20T02:28:20;96388.63;;;5.87;100.00
13434;BME280;6789;47.678;9.158;2023-04-20T02:33:11;96391.44;;;5.85;100.00
13434;BME280;6789;47.678;9.158;2023-04-20T02:38:03;96377.59;;;5.91;100.00
13434;BME280;6789;47.678;9.158;2023-04-20T02:42:55;96371.44;;;5.79;100.00
13434;BME280;6789;47.678;9.158;2023-04-20T02:47:46;96365.00;;;5.82;100.00
13434;BME280;6789;47.678;9.158;2023-04-20T02:52:38;96369.81;;;5.65;100.00
13434;BME280;6789;47.678;9.158;2023-04-20T02:57:30;96365.81;;;5.82;100.00
13434;BME280;6789;47.678;9.158;2023-04-20T03:02:22;96366.81;;;5.62;100.00
13434;BME280;6789;47.678;9.158;2023-04-20T03:07:14;96351.00;;;5.51;100.00
13434;BME280;6789;47.678;9.158;2023-04-20T03:12:07;96346.22;;;5.48;100.00
13434;BME280;6789;47.678;9.158;2023-04-20T03:16:59;96355.03;;;5.60;100.00
13434;BME280;6789;47.678;9.158;2023-04-20T03:21:50;96352.63;;;5.52;100.00
13434;BME280;6789;47.678;9.158;2023-04-20T03:26:42;96336.22;;;5.45;100.00
13434;BME280;6789;47.678;9.158;2023-04-20T03:31:49;96342.63;;;5.42;100.00
13434;BME280;6789;47.678;9.158;2023-04-20T03:36:55;96336.03;;;5.40;100.00
13434;BME280;6789;47.678;9.158;2023-04-20T03:41:46;96324.44;;;5.42;100.00
13434;BME280;6789;47.678;9.158;2023-04-20T03:46:38;96327.22;;;5.47;100.00
13434;BME280;6789;47.678;9.158;2023-04-20T03:51:30;96322.84;;;5.48;100.00
13434;BME280;6789;47.678;9.158;2023-04-20T03:56:22;96333.81;;;5.50;100.00
13434;BME280;6789;47.678;9.158;2023-04-20T04:01:14;96317.00;;;5.59;100.00
13434;BME280;6789;47.678;9.158;2023-04-20T04:06:08;96320.22;;;5.61;100.00
13434;BME280;6789;47.678;9.158;2023-04-20T04:11:00;96327.81;;;5.56;100.00
13434;BME280;6789;47.678;9.158;2023-04-20T04:16:01;96327.81;;;5.62;100.00
13434;BME280;6789;47.678;9.158;2023-04-20T04:20:52;96332.00;;;5.57;100.00
13434;BME280;6789;47.678;9.158;2023-04-20T04:25:44;96323.63;;;5.55;100.00
13434;BME280;6789;47.678;9.158;2023-04-20T04:30:36;96303.41;;;5.57;100.00
13434;BME280;6789;47.678;9.158;2023-04-20T04:35:30;96307.22;;;5.54;100.00
13434;BME280;6789;47.678;9.158;2023-04-20T04:40:24;96292.59;;;5.53;100.00
13434;BME280;6789;47.678;9.158;2023-04-20T04:45:17;96295.38;;;5.64;100.00
13434;BME280;6789;47.678;9.158;2023-04-20T04:50:11;96297.59;;;5.61;100.00
13434;BME280;6789;47.678;9.158;2023-04-20T04:55:17;96308.00;;;5.61;100.00
13434;BME280;6789;47.678;9.158;2023-04-20T05:00:09;96309.00;;;5.79;100.00
13434;BME280;6789;47.678;9.158;2023-04-20T05:05:03;96304.38;;;5.68;100.00
13434;BME280;6789;47.678;9.158;2023-04-20T05:09:57;96304.38;;;5.75;100.00
13434;BME280;6789;47.678;9.158;2023-04-20T05:14:49;96305.00;;;5.58;100.00
13434;BME280;6789;47.678;9.158;2023-04-20T05:19:41;96301.19;;;5.66;100.00
13434;BME280;6789;47.678;9.158;2023-04-20T05:24:34;96308.56;;;5.69;100.00
13434;BME280;6789;47.678;9.158;2023-04-20T05:29:26;96310.56;;;5.80;100.00
13434;BME280;6789;47.678;9.158;2023-04-20T05:34:18;96309.56;;;5.75;100.00
13434;BME280;6789;47.678;9.158;2023-04-20T05:39:10;96305.56;;;5.66;100.00
13434;BME280;6789;47.678;9.158;2023-04-20T05:44:05;96303.41;;;5.57;100.00
13434;BME280;6789;47.678;9.158;2023-04-20T05:48:58;96300.97;;;5.62;100.00
13434;BME280;6789;47.678;9.158;2023-04-20T05:53:50;96296.81;;;5.61;100.00
13434;BME280;6789;47.678;9.158;2023-04-20T05:58:56;96290.22;;;5.52;100.00
13434;BME280;6789;47.678;9.158;2023-04-20T06:03:49;96286.38;;;5.73;100.00
13434;BME280;6789;47.678;9.158;2023-04-20T06:08:42;96284.78;;;5.79;100.00
13434;BME280;6789;47.678;9.158;2023-04-20T06:13:34;96291.78;;;5.78;100.00
13434;BME280;6789;47.678;9.158;2023-04-20T06:18:25;96303.97;;;5.84;100.00
13434;BME280;6789;47.678;9.158;2023-04-20T06:23:18;96301.59;;;5.70;100.00
13434;BME280;6789;47.678;9.158;2023-04-20T06:28:17;96291.19;;;5.63;100.00
13434;BME280;6789;47.678;9.158;2023-04-20T06:33:10;96286.38;;;5.73;100.00
13434;BME280;6789;47.678;9.158;2023-04-20T06:38:22;96293.19;;;5.62;100.00
13434;BME280;6789;47.678;9.158;2023-04-20T06:43:21;96287.41;;;5.60;100.00
13434;BME280;6789;47.678;9.158;2023-04-20T06:48:17;96295.38;;;5.64;100.00
13434;BME280;6789;47.678;9.158;2023-04-20T06:53:23;96285.16;;;5.89;100.00
13434;BME280;6789;47.678;9.158;2023-04-20T06:58:29;96294.56;;;5.83;100.00
13434;BME280;6789;47.678;9.158;2023-04-20T07:03:23;96295.78;;;5.81;100.00
13434;BME280;6789;47.678;9.158;2023-04-20T07:08:16;96288.97;;;5.67;100.00
13434;BME280;6789;47.678;9.158;2023-04-20T07:13:10;96270.16;;;5.84;100.00
13434;BME280;6789;47.678;9.158;2023-04-20T07:18:18;96280.13;;;5.87;100.00
13434;BME280;6789;47.678;9.158;2023-04-20T07:23:11;96269.31;;;5.90;100.00
13434;BME280;6789;47.678;9.158;2023-04-20T07:28:05;96271.22;;;6.14;100.00
13434;BME280;6789;47.678;9.158;2023-04-20T07:33:13;96268.94;;;6.24;100.00
13434;BME280;6789;47.678;9.158;2023-04-20T07:38:06;96263.25;;;6.09;100.00
13434;BME280;6789;47.678;9.158;2023-04-20T07:42:59;96276.06;;;6.04;100.00
13434;BME280;6789;47.678;9.158;2023-04-20T07:47:51;96273.13;;;6.32;100.00
13434;BME280;6789;47.678;9.158;2023-04-20T07:52:46;96263.25;;;6.40;100.00
13434;BME280;6789;47.678;9.158;2023-04-20T07:57:38;96280.97;;;6.56;100.00
13434;BME280;6789;47.678;9.158;2023-04-20T08:02:31;96264.78;;;6.54;100.00
13434;BME280;6789;47.678;9.158;2023-04-20T08:07:24;96280.94;;;6.62;100.00
13434;BME280;6789;47.678;9.158;2023-04-20T08:12:34;96264.72;;;6.60;100.00
13434;BME280;6789;47.678;9.158;2023-04-20T08:17:40;96282.06;;;6.73;100.00
13434;BME280;6789;47.678;9.158;2023-04-20T08:22:37;96280.50;;;6.72;100.00
13434;BME280;6789;47.678;9.158;2023-04-20T08:27:38;96273.75;;;6.58;100.00
13434;BME280;6789;47.678;9.158;2023-04-20T08:32:31;96279.25;;;6.74;100.00
13434;BME280;6789;47.678;9.158;2023-04-20T08:37:37;96288.25;;;6.47;100.00
13434;BME280;6789;47.678;9.158;2023-04-20T08:42:39;96278.66;;;6.41;100.00
13434;BME280;6789;47.678;9.158;2023-04-20T08:47:48;96276.59;;;6.56;100.00
13434;BME280;6789;47.678;9.158;2023-04-20T08:52:56;96281.97;;;6.86;100.00
13434;BME280;6789;47.678;9.158;2023-04-20T08:58:02;96294.44;;;6.84;100.00
13434;BME280;6789;47.678;9.158;2023-04-20T09:03:08;96299.75;;;6.64;100.00
13434;BME280;6789;47.678;9.158;2023-04-20T09:08:01;96296.09;;;7.03;100.00
13434;BME280;6789;47.678;9.158;2023-04-20T09:12:55;96284.66;;;7.04;100.00
13434;BME280;6789;47.678;9.158;2023-04-20T09:17:48;96284.78;;;7.33;100.00
13434;BME280;6789;47.678;9.158;2023-04-20T09:22:54;96276.47;;;7.60;100.00
13434;BME280;6789;47.678;9.158;2023-04-20T09:28:16;96271.94;;;7.74;100.00
13434;BME280;6789;47.678;9.158;2023-04-20T09:33:27;96264.88;;;7.56;100.00
13434;BME280;6789;47.678;9.158;2023-04-20T09:38:25;96257.28;;;7.55;100.00
13434;BME280;6789;47.678;9.158;2023-04-20T09:43:34;96261.69;;;7.54;99.53
13434;BME280;6789;47.678;9.158;2023-04-20T09:48:30;96241.13;;;7.82;100.00
13434;BME280;6789;47.678;9.158;2023-04-20T09:53:24;96245.41;;;7.59;97.90
13434;BME280;6789;47.678;9.158;2023-04-20T09:58:18;96243.94;;;7.45;99.98
13434;BME280;6789;47.678;9.158;2023-04-20T10:03:25;96236.41;;;7.37;100.00
13434;BME280;6789;47.678;9.158;2023-04-20T10:08:41;96220.03;;;7.48;100.00
13434;BME280;6789;47.678;9.158;2023-04-20T10:13:59;96231.25;;;7.66;100.00
13434;BME280;6789;47.678;9.158;2023-04-20T10:19:04;96238.75;;;7.63;100.00
13434;BME280;6789;47.678;9.158;2023-04-20T10:24:46;96226.03;;;7.48;100.00
13434;BME280;6789;47.678;9.158;2023-04-20T10:29:40;96234.31;;;7.27;100.00
13434;BME280;6789;47.678;9.158;2023-04-20T10:34:40;96231.84;;;7.50;100.00
13434;BME280;6789;47.678;9.158;2023-04-20T10:39:47;96223.16;;;7.56;99.78
13434;BME280;6789;47.678;9.158;2023-04-20T10:44:53;96219.94;;;7.54;100.00
13434;BME280;6789;47.678;9.158;2023-04-20T10:50:15;96219.06;;;7.60;100.00
13434;BME280;6789;47.678;9.158;2023-04-20T10:55:26;96205.59;;;7.81;98.12
13434;BME280;6789;47.678;9.158;2023-04-20T11:00:26;96215.75;;;7.71;97.28
13434;BME280;6789;47.678;9.158;2023-04-20T11:05:32;96201.09;;;7.88;97.44
13434;BME280;6789;47.678;9.158;2023-04-20T11:10:41;96184.03;;;8.03;98.85
13434;BME280;6789;47.678;9.158;2023-04-20T11:15:38;96180.84;;;8.31;97.42
13434;BME280;6789;47.678;9.158;2023-04-20T11:20:31;96174.91;;;8.24;97.07
13434;BME280;6789;47.678;9.158;2023-04-20T11:25:51;96170.84;;;8.28;98.26
13434;BME280;6789;47.678;9.158;2023-04-20T11:30:57;96163.44;;;8.25;98.33
13434;BME280;6789;47.678;9.158;2023-04-20T11:35:51;96161.69;;;8.59;96.70
13434;BME280;6789;47.678;9.158;2023-04-20T11:40:43;96171.97;;;8.95;95.63
13434;BME280;6789;47.678;9.158;2023-04-20T11:45:35;96179.34;;;8.98;94.23
13434;BME280;6789;47.678;9.158;2023-04-20T11:50:28;96180.94;;;8.99;94.78
13434;BME280;6789;47.678;9.158;2023-04-20T11:55:24;96179.44;;;8.80;93.89
13434;BME280;6789;47.678;9.158;2023-04-20T12:00:17;96189.91;;;8.80;93.86
13434;BME280;6789;47.678;9.158;2023-04-20T12:05:11;96201.41;;;8.91;94.10
13434;BME280;6789;47.678;9.158;2023-04-20T12:10:18;96206.88;;;8.89;95.21
13434;BME280;6789;47.678;9.158;2023-04-20T12:15:10;96197.63;;;8.87;95.48
13434;BME280;6789;47.678;9.158;2023-04-20T12:20:17;96199.38;;;8.93;94.97
13434;BME280;6789;47.678;9.158;2023-04-20T12:25:23;96199.56;;;8.91;94.45
13434;BME280;6789;47.678;9.158;2023-04-20T12:30:29;96196.63;;;8.99;96.12
13434;BME280;6789;47.678;9.158;2023-04-20T12:35:35;96187.53;;;9.13;94.51
13434;BME280;6789;47.678;9.158;2023-04-20T12:40:28;96196.41;;;9.12;93.56
13434;BME280;6789;47.678;9.158;2023-04-20T12:45:20;96196.06;;;9.09;92.86
13434;BME280;6789;47.678;9.158;2023-04-20T12:50:37;96188.00;;;8.87;93.06
13434;BME280;6789;47.678;9.158;2023-04-20T12:55:44;96180.94;;;8.99;93.99
13434;BME280;6789;47.678;9.158;2023-04-20T13:00:37;96179.34;;;9.10;93.99
13434;BME280;6789;47.678;9.158;2023-04-20T13:05:43;96179.34;;;9.10;94.88
13434;BME280;6789;47.678;9.158;2023-04-20T13:10:49;96194.03;;;9.11;91.77
13434;BME280;6789;47.678;9.158;2023-04-20T13:15:43;96193.22;;;9.22;92.27
13434;BME280;6789;47.678;9.158;2023-04-20T13:20:36;96199.91;;;9.40;91.58
13434;BME280;6789;47.678;9.158;2023-04-20T13:25:35;96208.78;;;9.28;91.39
13434;BME280;6789;47.678;9.158;2023-04-20T13:30:47;96203.31;;;9.41;94.39
13434;BME280;6789;47.678;9.158;2023-04-20T13:35:52;96208.22;;;9.49;96.01
13434;BME280;6789;47.678;9.158;2023-04-20T13:40:58;96228.13;;;9.38;95.66
13434;BME280;6789;47.678;9.158;2023-04-20T13:46:04;96223.91;;;9.37;96.29
13434;BME280;6789;47.678;9.158;2023-04-20T13:51:06;96216.88;;;9.38;97.62
13434;BME280;6789;47.678;9.158;2023-04-20T13:55:59;96211.84;;;9.02;93.72
13434;BME280;6789;47.678;9.158;2023-04-20T14:01:12;96214.38;;;9.09;96.41
13434;BME280;6789;47.678;9.158;2023-04-20T14:06:05;96223.25;;;9.08;95.00
13434;BME280;6789;47.678;9.158;2023-04-20T14:10:58;96221.53;;;9.13;97.99
13434;BME280;6789;47.678;9.158;2023-04-20T14:15:50;96235.38;;;9.02;98.00
13434;BME280;6789;47.678;9.158;2023-04-20T14:20:42;96230.84;;;8.98;100.00
13434;BME280;6789;47.678;9.158;2023-04-20T14:25:42;96233.69;;;8.96;99.79
13434;BME280;6789;47.678;9.158;2023-04-20T14:30:35;96228.69;;;8.95;100.00
13434;BME280;6789;47.678;9.158;2023-04-20T14:35:40;96227.09;;;8.82;100.00
13434;BME280;6789;47.678;9.158;2023-04-20T14:40:33;96215.56;;;8.60;100.00
13434;BME280;6789;47.678;9.158;2023-04-20T14:45:40;96217.94;;;8.51;100.00
13434;BME280;6789;47.678;9.158;2023-04-20T14:50:33;96210.88;;;8.51;100.00
13434;BME280;6789;47.678;9.158;2023-04-20T14:55:39;96209.06;;;8.52;100.00
13434;BME280;6789;47.678;9.158;2023-04-20T15:00:39;96211.16;;;8.61;100.00
13434;BME280;6789;47.678;9.158;2023-04-20T15:05:31;96218.63;;;8.57;100.00
13434;BME280;6789;47.678;9.158;2023-04-20T15:10:37;96212.28;;;8.65;100.00
13434;BME280;6789;47.678;9.158;2023-04-20T15:15:53;96233.72;;;8.55;100.00
13434;BME280;6789;47.678;9.158;2023-04-20T15:20:46;96225.09;;;8.55;100.00
13434;BME280;6789;47.678;9.158;2023-04-20T15:25:53;96241.25;;;8.63;100.00
13434;BME280;6789;47.678;9.158;2023-04-20T15:30:58;96227.72;;;8.66;100.00
13434;BME280;6789;47.678;9.158;2023-04-20T15:35:50;96228.31;;;8.68;100.00
13434;BME280;6789;47.678;9.158;2023-04-20T15:40:42;96228.38;;;8.51;100.00
13434;BME280;6789;47.678;9.158;2023-04-20T15:45:34;96221.84;;;8.30;100.00
13434;BME280;6789;47.678;9.158;2023-04-20T15:50:40;96221.63;;;8.14;100.00
13434;BME280;6789;47.678;9.158;2023-04-20T15:55:36;96230.34;;;8.26;100.00
13434;BME280;6789;47.678;9.158;2023-04-20T16:00:28;96240.63;;;8.39;100.00
13434;BME280;6789;47.678;9.158;2023-04-20T16:05:24;96253.81;;;8.44;100.00
13434;BME280;6789;47.678;9.158;2023-04-20T16:10:20;96260.28;;;8.41;100.00
13434;BME280;6789;47.678;9.158;2023-04-20T16:15:12;96241.56;;;8.15;100.00
13434;BME280;6789;47.678;9.158;2023-04-20T16:20:18;96233.34;;;7.93;100.00
13434;BME280;6789;47.678;9.158;2023-04-20T16:25:23;96214.13;;;7.88;100.00
13434;BME280;6789;47.678;9.158;2023-04-20T16:30:44;96213.28;;;7.76;100.00
13434;BME280;6789;47.678;9.158;2023-04-20T16:35:51;96206.25;;;7.59;100.00
13434;BME280;6789;47.678;9.158;2023-04-20T16:40:58;96203.44;;;7.42;100.00
13434;BME280;6789;47.678;9.158;2023-04-20T16:46:04;96237.66;;;7.52;100.00
13434;BME280;6789;47.678;9.158;2023-04-20T16:51:10;96252.28;;;7.71;100.00
13434;BME280;6789;47.678;9.158;2023-04-20T16:56:26;96265.19;;;7.84;100.00
13434;BME280;6789;47.678;9.158;2023-04-20T17:01:23;96275.91;;;7.94;100.00
13434;BME280;6789;47.678;9.158;2023-04-20T17:06:29;96282.88;;;8.00;100.00
13434;BME280;6789;47.678;9.158;2023-04-20T17:11:57;96284.09;;;7.97;100.00
13434;BME280;6789;47.678;9.158;2023-04-20T17:17:03;96283.47;;;8.02;100.00
13434;BME280;6789;47.678;9.158;2023-04-20T17:21:58;96305.72;;;8.04;100.00
13434;BME280;6789;47.678;9.158;2023-04-20T17:26:52;96317.16;;;8.03;100.00
13434;BME280;6789;47.678;9.158;2023-04-20T17:31:46;96305.22;;;7.96;100.00
13434;BME280;6789;47.678;9.158;2023-04-20T17:36:53;96313.59;;;7.98;100.00
13434;BME280;6789;47.678;9.158;2023-04-20T17:41:56;96330.09;;;7.98;100.00
13434;BME280;6789;47.678;9.158;2023-04-20T17:47:12;96325.06;;;7.97;100.00
13434;BME280;6789;47.678;9.158;2023-04-20T17:52:06;96330.13;;;7.74;100.00
13434;BME280;6789;47.678;9.158;2023-04-20T17:57:00;96342.75;;;7.77;100.00
13434;BME280;6789;47.678;9.158;2023-04-20T18:01:55;96350.22;;;7.74;100.00
13434;BME280;6789;47.678;9.158;2023-04-20T18:06:47;96321.56;;;7.67;100.00
13434;BME280;6789;47.678;9.158;2023-04-20T18:11:54;96326.72;;;7.56;100.00
13434;BME280;6789;47.678;9.158;2023-04-20T18:16:46;96345.13;;;7.61;100.00
13434;BME280;6789;47.678;9.158;2023-04-20T18:21:56;96360.72;;;7.67;100.00
13434;BME280;6789;47.678;9.158;2023-04-20T18:26:48;96360.84;;;7.72;100.00
13434;BME280;6789;47.678;9.158;2023-04-20T18:31:44;96365.50;;;7.70;100.00
13434;BME280;6789;47.678;9.158;2023-04-20T18:36:39;96365.94;;;7.67;100.00
13434;BME280;6789;47.678;9.158;2023-04-20T18:41:45;96376.28;;;7.56;100.00
13434;BME280;6789;47.678;9.158;2023-04-20T18:46:37;96374.91;;;7.53;100.00
13434;BME280;6789;47.678;9.158;2023-04-20T18:51:43;96382.13;;;7.51;100.00
13434;BME280;6789;47.678;9.158;2023-04-20T18:56:39;96374.16;;;7.46;100.00
13434;BME280;6789;47.678;9.158;2023-04-20T19:01:47;96374.56;;;7.43;100.00
13434;BME280;6789;47.678;9.158;2023-04-20T19:06:41;96377.34;;;7.48;100.00
13434;BME280;6789;47.678;9.158;2023-04-20T19:11:35;96380.25;;;7.34;100.00
13434;BME280;6789;47.678;9.158;2023-04-20T19:16:41;96382.94;;;7.27;100.00
13434;BME280;6789;47.678;9.158;2023-04-20T19:21:47;96382.81;;;7.16;100.00
13434;BME280;6789;47.678;9.158;2023-04-20T19:26:53;96385.78;;;6.89;100.00
13434;BME280;6789;47.678;9.158;2023-04-20T19:31:44;96375.44;;;6.76;100.00
13434;BME280;6789;47.678;9.158;2023-04-20T19:36:50;96369.69;;;6.61;100.00
13434;BME280;6789;47.678;9.158;2023-04-20T19:41:57;96359.94;;;6.50;100.00
13434;BME280;6789;47.678;9.158;2023-04-20T19:47:13;96349.41;;;6.38;100.00
13434;BME280;6789;47.678;9.158;2023-04-20T19:52:19;96347.25;;;6.23;100.00
13434;BME280;6789;47.678;9.158;2023-04-20T19:57:26;96337.50;;;6.12;100.00
13434;BME280;6789;47.678;9.158;2023-04-20T20:02:22;96331.72;;;6.03;100.00
13434;BME280;6789;47.678;9.158;2023-04-20T20:07:14;96329.13;;;5.97;100.00
13434;BME280;6789;47.678;9.158;2023-04-20T20:12:07;96326.97;;;5.87;100.00
13434;BME280;6789;47.678;9.158;2023-04-20T20:17:15;96331.59;;;5.85;100.00
13434;BME280;6789;47.678;9.158;2023-04-20T20:22:08;96319.59;;;5.84;100.00
13434;BME280;6789;47.678;9.158;2023-04-20T20:27:14;96312.34;;;5.86;100.00
13434;BME280;6789;47.678;9.158;2023-04-20T20:32:07;96311.16;;;5.89;100.00
13434;BME280;6789;47.678;9.158;2023-04-20T20:37:03;96300.94;;;5.87;100.00
13434;BME280;6789;47.678;9.158;2023-04-20T20:42:09;96302.16;;;5.85;100.00
13434;BME280;6789;47.678;9.158;2023-04-20T20:47:14;96300.94;;;5.87;100.00
13434;BME280;6789;47.678;9.158;2023-04-20T20:52:06;96318.94;;;5.95;100.00
13434;BME280;6789;47.678;9.158;2023-04-20T20:57:02;96312.53;;;5.98;100.00
13434;BME280;6789;47.678;9.158;2023-04-20T21:02:08;96318.16;;;5.95;100.00
13434;BME280;6789;47.678;9.158;2023-04-20T21:07:00;96318.75;;;5.90;100.00
13434;BME280;6789;47.678;9.158;2023-04-20T21:11:52;96324.19;;;5.89;100.00
13434;BME280;6789;47.678;9.158;2023-04-20T21:16:58;96327.78;;;5.88;100.00
13434;BME280;6789;47.678;9.158;2023-04-20T21:22:04;96311.78;;;5.84;100.00
13434;BME280;6789;47.678;9.158;2023-04-20T21:26:55;96307.34;;;5.85;100.00
13434;BME280;6789;47.678;9.158;2023-04-20T21:31:48;96296.56;;;5.81;100.00
13434;BME280;6789;47.678;9.158;2023-04-20T21:36:42;96293.78;;;5.76;100.00
13434;BME280;6789;47.678;9.158;2023-04-20T21:41:34;96296.56;;;5.75;100.00
13434;BME280;6789;47.678;9.158;2023-04-20T21:46:39;96312.97;;;5.75;100.00
13434;BME280;6789;47.678;9.158;2023-04-20T21:51:32;96310.56;;;5.80;100.00
13434;BME280;6789;47.678;9.158;2023-04-20T21:56:25;96310.56;;;5.87;100.00
13434;BME280;6789;47.678;9.158;2023-04-20T22:01:41;96311.34;;;5.94;100.00
13434;BME280;6789;47.678;9.158;2023-04-20T22:07:01;96310.13;;;5.96;100.00
13434;BME280;6789;47.678;9.158;2023-04-20T22:12:00;96314.13;;;5.99;100.00
13434;BME280;6789;47.678;9.158;2023-04-20T22:16:58;96318.13;;;6.01;100.00
13434;BME280;6789;47.678;9.158;2023-04-20T22:22:11;96316.91;;;6.04;100.00
13434;BME280;6789;47.678;9.158;2023-04-20T22:27:18;96324.09;;;6.02;100.00
13434;BME280;6789;47.678;9.158;2023-04-20T22:33:55;96322.72;;;6.06;100.00
13434;BME280;6789;47.678;9.158;2023-04-20T22:39:06;96330.13;;;5.96;100.00
13434;BME280;6789;47.678;9.158;2023-04-20T22:44:12;96322.56;;;5.81;100.00
13434;BME280;6789;47.678;9.158;2023-04-20T22:49:49;96315.78;;;5.74;100.00
13434;BME280;6789;47.678;9.158;2023-04-20T22:55:28;96305.97;;;5.69;100.00
13434;BME280;6789;47.678;9.158;2023-04-20T23:00:48;96291.00;;;5.59;100.00
13434;BME280;6789;47.678;9.158;2023-04-20T23:05:54;96307.41;;;5.53;100.00
13434;BME280;6789;47.678;9.158;2023-04-20T23:11:11;96319.81;;;5.57;100.00
13434;BME280;6789;47.678;9.158;2023-04-20T23:16:35;96321.41;;;5.52;100.00
13434;BME280;6789;47.678;9.158;2023-04-20T23:21:43;96318.44;;;5.55;100.00
13434;BME280;6789;47.678;9.158;2023-04-20T23:27:14;96311.63;;;5.54;100.00
13434;BME280;6789;47.678;9.158;2023-04-20T23:32:32;96328.63;;;5.50;100.00
13434;BME280;6789;47.678;9.158;2023-04-20T23:38:21;96327.81;;;5.49;100.00
13434;BME280;6789;47.678;9.158;2023-04-20T23:43:46;96321.84;;;5.42;100.00
13434;BME280;6789;47.678;9.158;2023-04-20T23:48:38;96313.03;;;5.37;100.00
13434;BME280;6789;47.678;9.158;2023-04-20T23:53:29;96300.25;;;5.29;100.00
13434;BME280;6789;47.678;9.158;2023-04-20T23:58:25;96287.84;;;5.31;100.00
